createdAt,value
2022-08-04T00:01:33.157Z,3.08
2022-08-04T00:06:46.989Z,2.70
2022-08-04T00:11:53.634Z,2.80
2022-08-04T00:16:56.836Z,2.95
2022-08-04T00:22:05.024Z,3.20
2022-08-04T00:27:09.410Z,3.38
2022-08-04T00:32:13.496Z,3.70
2022-08-04T00:37:18.119Z,3.30
2022-08-04T00:42:58.437Z,4.03
2022-08-04T00:48:11.423Z,3.30
2022-08-04T00:53:31.447Z,3.03
2022-08-04T00:58:45.000Z,2.88
2022-08-04T01:03:52.225Z,3.17
2022-08-04T01:09:07.106Z,3.35
2022-08-04T01:14:28.344Z,2.80
2022-08-04T01:19:55.597Z,3.15
2022-08-04T01:25:15.925Z,2.90
2022-08-04T01:30:20.789Z,3.15
2022-08-04T01:40:48.419Z,2.97
2022-08-04T01:45:59.128Z,2.97
2022-08-04T01:51:06.109Z,3.20
2022-08-04T01:56:10.148Z,4.15
2022-08-04T02:06:32.456Z,3.20
2022-08-04T02:11:35.219Z,3.22
2022-08-04T02:16:52.464Z,3.40
2022-08-04T02:21:58.656Z,3.28
2022-08-04T02:27:04.124Z,3.17
2022-08-04T02:32:14.487Z,3.78
2022-08-04T02:37:18.452Z,3.38
2022-08-04T02:42:21.511Z,3.28
2022-08-04T02:48:23.699Z,3.50
2022-08-04T02:52:52.973Z,3.60
2022-08-04T02:57:57.444Z,4.47
2022-08-04T03:03:14.985Z,3.50
2022-08-04T03:08:39.617Z,3.38
2022-08-04T03:14:13.984Z,3.03
2022-08-04T03:19:51.063Z,3.42
2022-08-04T03:25:21.248Z,2.80
2022-08-04T03:30:37.926Z,3.50
2022-08-04T03:36:37.659Z,3.22
2022-08-04T03:42:04.220Z,3.60
2022-08-04T03:47:29.333Z,3.80
2022-08-04T03:53:09.836Z,3.40
2022-08-04T03:58:44.116Z,3.10
2022-08-04T04:04:27.521Z,3.03
2022-08-04T04:10:07.225Z,3.03
2022-08-04T04:15:25.179Z,3.42
2022-08-04T04:20:54.428Z,3.28
2022-08-04T04:26:07.737Z,3.17
2022-08-04T04:31:25.953Z,3.47
2022-08-04T04:36:43.739Z,3.20
2022-08-04T04:42:13.895Z,3.72
2022-08-04T04:47:43.202Z,3.15
2022-08-04T04:52:57.883Z,4.25
2022-08-04T04:58:02.529Z,3.30
2022-08-04T05:03:18.891Z,3.47
2022-08-04T05:08:47.363Z,3.67
2022-08-04T05:14:34.410Z,3.65
2022-08-04T05:19:26.834Z,3.65
2022-08-04T05:24:35.092Z,3.70
2022-08-04T05:29:41.518Z,3.55
2022-08-04T05:34:53.391Z,3.38
2022-08-04T05:40:02.878Z,3.35
2022-08-04T05:45:07.866Z,3.45
2022-08-04T05:50:11.962Z,3.67
2022-08-04T05:55:49.046Z,3.20
2022-08-04T06:00:41.505Z,3.33
2022-08-04T06:05:47.086Z,3.78
2022-08-04T06:10:51.983Z,3.42
2022-08-04T06:15:57.211Z,3.90
2022-08-04T06:21:03.680Z,3.47
2022-08-04T06:26:19.685Z,3.67
2022-08-04T06:32:27.107Z,3.78
2022-08-04T06:37:43.114Z,3.72
2022-08-04T06:42:43.780Z,3.53
2022-08-04T06:47:48.601Z,3.63
2022-08-04T06:52:52.457Z,3.80
2022-08-04T07:03:07.103Z,3.17
2022-08-04T07:08:12.923Z,3.85
2022-08-04T07:13:16.649Z,4.05
2022-08-04T07:18:19.477Z,3.78
2022-08-04T07:23:27.076Z,4.07
2022-08-04T07:28:31.547Z,4.03
2022-08-04T07:33:34.514Z,4.10
2022-08-04T07:38:48.082Z,4.13
2022-08-04T07:43:54.811Z,4.45
2022-08-04T07:48:58.220Z,4.10
2022-08-04T07:54:03.342Z,3.90
2022-08-04T07:59:06.683Z,3.80
2022-08-04T08:09:14.953Z,3.15
2022-08-04T08:14:18.076Z,3.38
2022-08-04T08:19:21.741Z,3.00
2022-08-04T08:24:25.692Z,3.10
2022-08-04T08:29:29.933Z,3.08
2022-08-04T08:34:34.026Z,3.10
2022-08-04T08:39:42.368Z,2.60
2022-08-04T08:45:21.312Z,2.13
2022-08-04T08:50:46.029Z,1.60
2022-08-04T08:56:12.514Z,1.85
2022-08-04T09:01:32.485Z,1.60
2022-08-04T09:07:14.741Z,1.80
2022-08-04T09:12:26.461Z,1.70
2022-08-04T09:17:31.662Z,1.50
2022-08-04T09:22:39.768Z,1.55
2022-08-04T09:27:51.290Z,1.80
2022-08-04T09:33:01.873Z,1.65
2022-08-04T09:38:17.240Z,1.38
2022-08-04T09:43:59.063Z,1.48
2022-08-04T09:49:03.956Z,1.30
2022-08-04T09:54:30.078Z,1.08
2022-08-04T09:59:44.100Z,1.13
2022-08-04T10:04:48.266Z,1.20
2022-08-04T10:10:09.980Z,1.10
2022-08-04T10:15:20.620Z,1.50
2022-08-04T10:20:45.969Z,1.67
2022-08-04T10:26:09.633Z,1.80
2022-08-04T10:31:25.610Z,1.30
2022-08-04T10:36:33.011Z,1.52
2022-08-04T10:41:41.111Z,1.45
2022-08-04T10:46:50.885Z,1.55
2022-08-04T10:52:00.425Z,1.60
2022-08-04T10:57:08.136Z,1.60
2022-08-04T11:02:27.335Z,1.30
2022-08-04T11:07:33.664Z,1.55
2022-08-04T11:12:38.417Z,1.42
2022-08-04T11:17:47.600Z,1.55
2022-08-04T11:22:57.933Z,1.83
2022-08-04T11:28:10.289Z,1.73
2022-08-04T11:33:24.548Z,1.67
2022-08-04T11:38:32.763Z,1.60
2022-08-04T11:44:00.582Z,2.60
2022-08-04T11:49:09.359Z,1.77
2022-08-04T11:54:13.578Z,1.70
2022-08-04T11:59:16.125Z,1.85
2022-08-04T12:04:29.235Z,1.80
2022-08-04T12:09:43.301Z,1.33
2022-08-04T12:14:55.873Z,2.00
2022-08-04T12:20:31.653Z,1.77
2022-08-04T12:25:31.390Z,1.85
2022-08-04T12:31:00.602Z,1.67
2022-08-04T12:36:17.894Z,1.63
2022-08-04T12:41:29.165Z,1.63
2022-08-04T12:46:33.821Z,1.80
2022-08-04T12:52:07.400Z,2.15
2022-08-04T12:57:07.216Z,1.67
2022-08-04T13:02:15.137Z,1.65
2022-08-04T13:07:21.963Z,1.75
2022-08-04T13:12:32.802Z,1.50
2022-08-04T13:17:46.718Z,1.83
2022-08-04T13:22:53.229Z,1.52
2022-08-04T13:27:57.906Z,1.58
2022-08-04T13:33:06.279Z,1.77
2022-08-04T13:38:13.179Z,1.83
2022-08-04T13:44:18.894Z,1.80
2022-08-04T13:49:15.678Z,1.50
2022-08-04T13:54:13.609Z,1.95
2022-08-04T13:59:19.309Z,1.90
2022-08-04T14:04:24.406Z,1.85
2022-08-04T14:09:34.871Z,1.48
2022-08-04T14:14:47.691Z,1.60
2022-08-04T14:19:53.567Z,1.95
2022-08-04T14:24:59.295Z,1.60
2022-08-04T14:30:01.891Z,1.95
2022-08-04T14:35:12.208Z,1.95
2022-08-04T14:40:30.674Z,1.55
2022-08-04T14:45:35.797Z,2.13
2022-08-04T14:50:40.857Z,2.03
2022-08-04T14:55:47.548Z,1.90
2022-08-04T15:00:51.218Z,1.80
2022-08-04T15:06:00.416Z,1.55
2022-08-04T15:11:09.960Z,1.65
2022-08-04T15:16:13.163Z,1.45
2022-08-04T15:21:16.544Z,1.90
2022-08-04T15:26:26.617Z,1.80
2022-08-04T15:32:05.739Z,2.05
2022-08-04T15:37:01.672Z,2.10
2022-08-04T15:42:20.903Z,2.17
2022-08-04T15:47:23.911Z,2.10
2022-08-04T15:52:32.050Z,1.95
2022-08-04T15:58:02.208Z,1.95
2022-08-04T16:03:04.826Z,2.67
2022-08-04T16:08:12.951Z,2.22
2022-08-04T16:13:20.404Z,2.40
2022-08-04T16:18:39.166Z,1.90
2022-08-04T16:24:09.830Z,2.10
2022-08-04T16:29:39.776Z,2.40
2022-08-04T16:34:49.492Z,2.42
2022-08-04T16:40:37.576Z,2.00
2022-08-04T16:46:00.511Z,2.25
2022-08-04T16:51:06.675Z,2.00
2022-08-04T16:56:11.433Z,2.38
2022-08-04T17:01:21.885Z,2.20
2022-08-04T17:06:37.962Z,2.05
2022-08-04T17:11:40.912Z,2.15
2022-08-04T17:16:44.716Z,2.55
2022-08-04T17:21:47.342Z,2.10
2022-08-04T17:26:53.555Z,2.17
2022-08-04T17:31:58.841Z,2.63
2022-08-04T17:42:31.417Z,2.40
2022-08-04T17:47:38.232Z,2.50
2022-08-04T17:52:44.956Z,2.83
2022-08-04T17:57:52.198Z,2.42
2022-08-04T18:02:56.919Z,2.85
2022-08-04T18:08:45.540Z,2.70
2022-08-04T18:13:31.370Z,3.03
2022-08-04T18:19:11.737Z,3.00
2022-08-04T18:24:14.953Z,4.97
2022-08-04T18:29:30.964Z,3.65
2022-08-04T18:34:35.986Z,2.85
2022-08-04T18:40:17.232Z,3.50
2022-08-04T18:45:07.406Z,2.92
2022-08-04T18:51:01.122Z,3.17
2022-08-04T18:55:56.689Z,2.90
2022-08-04T19:01:00.875Z,2.90
2022-08-04T19:06:07.498Z,3.30
2022-08-04T19:11:28.667Z,3.60
2022-08-04T19:16:34.178Z,2.97
2022-08-04T19:21:59.421Z,3.50
2022-08-04T19:27:06.953Z,3.25
2022-08-04T19:37:58.533Z,2.65
2022-08-04T19:43:06.200Z,3.10
2022-08-04T19:48:19.850Z,3.17
2022-08-04T19:53:37.082Z,3.03
2022-08-04T19:58:41.877Z,2.80
2022-08-04T20:09:25.734Z,3.10
2022-08-04T20:14:32.100Z,3.15
2022-08-04T20:19:35.713Z,3.20
2022-08-04T20:24:45.959Z,3.35
2022-08-04T20:29:55.514Z,3.95
2022-08-04T20:34:58.669Z,3.20
2022-08-04T20:40:02.679Z,3.88
2022-08-04T20:45:08.854Z,3.08
2022-08-04T20:50:19.106Z,3.70
2022-08-04T20:55:55.132Z,3.20
2022-08-04T21:00:57.469Z,4.50
2022-08-04T21:06:00.199Z,3.30
2022-08-04T21:11:06.766Z,4.13
2022-08-04T21:16:09.608Z,3.30
2022-08-04T21:21:13.211Z,3.70
2022-08-04T21:26:25.937Z,3.90
2022-08-04T21:31:28.621Z,3.20
2022-08-04T21:36:31.249Z,3.80
2022-08-04T21:42:10.018Z,3.92
2022-08-04T21:46:59.948Z,3.50
2022-08-04T21:52:07.494Z,4.45
2022-08-04T21:57:14.302Z,3.33
2022-08-04T22:02:16.930Z,2.97
2022-08-04T22:07:23.160Z,3.28
2022-08-04T22:12:29.836Z,3.13
2022-08-04T22:17:35.562Z,3.25
2022-08-04T22:22:40.702Z,3.42
2022-08-04T22:28:03.343Z,2.80
2022-08-04T22:33:08.788Z,3.10
2022-08-04T22:38:24.421Z,2.80
2022-08-04T22:43:38.790Z,2.95
2022-08-04T22:48:43.450Z,3.17
2022-08-04T22:53:48.771Z,3.30
2022-08-04T22:58:53.062Z,3.25
2022-08-04T23:03:57.177Z,3.65
2022-08-04T23:08:59.883Z,2.85
2022-08-04T23:14:04.126Z,3.40
2022-08-04T23:19:10.002Z,3.15
2022-08-04T23:24:17.768Z,3.15
2022-08-04T23:34:25.207Z,3.10
2022-08-04T23:40:03.966Z,3.42
2022-08-04T23:44:52.111Z,3.10
2022-08-04T23:49:58.220Z,2.97
2022-08-04T23:55:01.334Z,2.90
